Outage due to equipment failure. Site will not be transmitting information for the foreseeable future.

Latest Weather Observations for Rundle Island

IDQ60801

Issued at 10:02 pm EST Wednesday 28 January 2015 (issued every 30 minutes, with the page automatically refreshed every 10 minutes)

About weather observations | Map of weather stations | Latest weather observations for QLD | Other Formats
Station Details ID: 039322 Name: RUNDLE ISLAND Lat: -23.53 Lon: 151.28 Height: 19.8 m
Data from the previous 72 hours. | See also: Recent months at Rundle Island
Date/Time
EST
Temp
°C
App
Temp
°C
Dew
Point
Rel
Hum
%
Delta-T
°C
Wind Press
QNH
hPa
Press
MSL
hPa
Rain
since 9 am
mm
Dir
 
Spd
km/h
Gust
km/h
Spd
kts
Gust
kts
28/10:00pm 25.3 - - - - SE 46 52 25 28 1005.0 1004.9 -
28/09:30pm 25.9 - - - - ESE 39 50 21 27 1004.8 1004.7 -
28/09:00pm 27.0 - - - - ESE 30 35 16 19 1004.4 1004.3 -
28/08:30pm 26.8 - - - - ESE 26 30 14 16 1004.5 1004.4 -
28/08:00pm 26.4 - - - - ESE 30 35 16 19 1003.8 1003.7 -
28/07:30pm 26.1 - - - - ESE 28 33 15 18 1003.5 1003.4 -
28/07:00pm 25.8 - - - - E 30 33 16 18 1003.9 1003.8 -
28/06:30pm 25.8 - - - - E 26 32 14 17 1003.6 1003.5 -
28/06:00pm 25.8 - - - - ESE 26 28 14 15 1003.7 1003.6 -
28/05:30pm 25.7 - - - - ESE 30 35 16 19 1002.8 1002.7 -
28/05:00pm 25.8 - - - - ESE 28 35 15 19 1002.6 1002.5 -
28/04:30pm 25.0 - - - - ESE 28 32 15 17 1002.2 1002.1 -
28/04:00pm 24.7 - - - - SE 37 44 20 24 1002.3 1002.2 -
28/03:30pm 25.6 - - - - SE 37 43 20 23 1002.5 1002.4 -
28/03:00pm 25.1 - - - - SE 30 35 16 19 1002.6 1002.5 -
28/02:30pm 25.4 - - - - ESE 32 41 17 22 1002.6 1002.5 -
28/02:00pm 25.0 - - - - ESE 32 39 17 21 1002.6 1002.5 -
28/01:30pm 25.8 - - - - ESE 35 43 19 23 1002.4 1002.3 -
28/01:00pm 25.0 - - - - ESE 33 41 18 22 1002.5 1002.4 -
28/12:30pm 27.5 - - - - ESE 35 41 19 22 1002.3 1002.2 -
28/12:00pm 27.8 - - - - ESE 39 43 21 23 1002.2 1002.1 -
28/11:30am 27.8 - - - - ESE 39 43 21 23 1002.4 1002.3 -
28/11:00am 27.6 - - - - ESE 39 43 21 23 1002.8 1002.7 -
28/10:30am 27.8 - - - - ESE 35 41 19 22 1002.9 1002.8 -
28/10:00am 27.8 - - - - ESE 33 39 18 21 1003.1 1003.0 -
28/09:30am 27.6 - - - - ESE 35 39 19 21 1003.1 1003.0 -
28/09:00am 27.7 - - - - ESE 32 35 17 19 1002.9 1002.8 -
28/08:30am 27.8 - - - - ESE 32 35 17 19 1003.0 1002.9 -
28/08:00am 27.6 - - - - ESE 33 39 18 21 1002.8 1002.7 -
28/07:30am 27.6 - - - - ESE 35 39 19 21 1002.6 1002.5 -
28/07:00am 27.3 - - - - ESE 33 39 18 21 1002.2 1002.1 -
28/06:30am 27.4 - - - - E 32 35 17 19 1002.3 1002.2 -
28/06:00am 27.4 - - - - E 33 41 18 22 1001.7 1001.6 -
28/05:30am 27.3 - - - - E 33 35 18 19 1001.4 1001.3 -
28/05:00am 27.3 - - - - ESE 30 33 16 18 1001.3 1001.2 -
28/04:30am 27.3 - - - - ESE 30 33 16 18 1001.1 1001.0 -
28/04:00am 27.3 - - - - ESE 32 35 17 19 1001.2 1001.1 -
28/03:30am 27.2 - - - - E 28 33 15 18 1001.4 1001.3 -
28/03:00am 27.3 - - - - E 30 35 16 19 1001.3 1001.2 -
28/02:30am 27.0 - - - - E 32 37 17 20 1001.6 1001.5 -
28/02:00am 27.4 - - - - E 30 35 16 19 1001.8 1001.7 -
28/01:30am 27.4 - - - - E 28 33 15 18 1002.2 1002.1 -
28/01:00am 27.5 - - - - E 30 35 16 19 1002.3 1002.2 -
28/12:30am 27.4 - - - - E 30 33 16 18 1002.7 1002.6 -
28/12:00am 27.5 - - - - E 28 32 15 17 1003.4 1003.3 -
 
Date/Time
EST
Temp
°C
App
Temp
°C
Dew
Point
Rel
Hum
%
Delta-T
°C
Wind Press
QNH
hPa
Press
MSL
hPa
Rain
since 9 am
mm
Dir
 
Spd
km/h
Gust
km/h
Spd
kts
Gust
kts
27/11:30pm 27.6 - - - - E 28 30 15 16 1003.8 1003.7 -
27/11:00pm 27.6 - - - - E 26 32 14 17 1004.2 1004.1 -
27/10:30pm 27.7 - - - - E 30 33 16 18 1004.2 1004.1 -
27/10:00pm 27.7 - - - - E 32 35 17 19 1004.0 1003.9 -
27/09:30pm 27.7 - - - - E 35 41 19 22 1003.6 1003.5 -
27/09:00pm 27.7 - - - - ESE 35 39 19 21 1004.0 1003.9 -
27/08:30pm 27.7 - - - - ESE 35 41 19 22 1004.1 1004.0 -
27/08:00pm 27.7 - - - - ESE 39 43 21 23 1004.0 1003.9 -
27/07:30pm 27.6 - - - - ESE 37 43 20 23 1003.3 1003.2 -
27/07:00pm 27.8 - - - - ESE 37 41 20 22 1003.3 1003.2 -
27/06:30pm 27.8 - - - - ESE 35 41 19 22 1003.0 1002.9 -
27/06:00pm 27.9 - - - - ESE 35 41 19 22 1002.7 1002.6 -
27/05:30pm 27.5 - - - - ESE 33 37 18 20 1001.8 1001.7 -
27/05:00pm 27.1 - - - - ESE 35 39 19 21 1001.9 1001.8 -
27/04:30pm 26.4 - - - - SE 35 39 19 21 1002.3 1002.2 -
27/04:00pm 26.3 - - - - SE 37 43 20 23 1002.2 1002.1 -
27/03:30pm 26.8 - - - - ESE 37 41 20 22 1002.1 1002.0 -
27/03:00pm 26.8 - - - - ESE 30 35 16 19 1002.3 1002.2 -
27/02:30pm 27.3 - - - - ESE 32 35 17 19 1002.6 1002.5 -
27/02:00pm 27.8 - - - - ESE 28 32 15 17 1002.7 1002.6 -
27/01:30pm 27.0 - - - - ESE 32 37 17 20 1003.0 1002.9 -
27/01:00pm 25.5 - - - - ESE 33 41 18 22 1003.4 1003.3 -
27/12:30pm 29.4 - - - - ESE 22 26 12 14 1003.6 1003.5 -
27/12:00pm 28.1 - - - - SE 20 24 11 13 1004.0 1003.9 -
27/11:30am 28.2 - - - - SE 22 24 12 13 1004.3 1004.2 -
27/11:00am 28.0 - - - - SE 28 32 15 17 1004.6 1004.5 -
27/10:30am 28.1 - - - - SE 26 30 14 16 1004.8 1004.7 -
27/10:00am 28.3 - - - - SE 22 28 12 15 1004.9 1004.8 -
27/09:30am 28.2 - - - - SE 24 28 13 15 1005.1 1005.0 -
27/09:00am 28.1 - - - - SE 26 30 14 16 1005.1 1005.0 -
27/08:30am 27.6 - - - - SE 26 30 14 16 1004.8 1004.7 -
27/08:00am 27.6 - - - - SE 26 30 14 16 1004.8 1004.7 -
27/07:30am 27.8 - - - - ESE 22 26 12 14 1004.4 1004.3 -
27/07:00am 27.6 - - - - ESE 22 28 12 15 1004.0 1003.9 -
27/06:30am 27.1 - - - - ESE 24 30 13 16 1003.9 1003.8 -
27/06:00am 26.8 - - - - ESE 33 37 18 20 1003.9 1003.8 -
27/05:30am 27.0 - - - - SE 32 39 17 21 1004.0 1003.9 -
27/05:00am 26.8 - - - - SE 33 39 18 21 1003.8 1003.7 -
27/04:30am 26.6 - - - - SSE 30 35 16 19 1003.9 1003.8 -
27/04:00am 26.6 - - - - SE 33 35 18 19 1003.6 1003.5 -
27/03:30am 26.9 - - - - SE 26 32 14 17 1004.1 1004.0 -
27/03:00am 27.1 - - - - SE 28 32 15 17 1003.3 1003.2 -
27/02:30am 27.4 - - - - ESE 26 30 14 16 1003.3 1003.2 -
27/02:00am 27.6 - - - - ESE 26 28 14 15 1003.5 1003.4 -
27/01:30am 27.5 - - - - E 26 30 14 16 1003.6 1003.5 -
27/01:00am 27.6 - - - - E 24 26 13 14 1003.8 1003.7 -
27/12:30am 27.4 - - - - ESE 19 24 10 13 1004.2 1004.1 -
27/12:00am 27.3 - - - - ESE 17 19 9 10 1004.6 1004.5 -
 
Date/Time
EST
Temp
°C
App
Temp
°C
Dew
Point
Rel
Hum
%
Delta-T
°C
Wind Press
QNH
hPa
Press
MSL
hPa
Rain
since 9 am
mm
Dir
 
Spd
km/h
Gust
km/h
Spd
kts
Gust
kts
26/11:30pm 27.4 - - - - ESE 15 24 8 13 1005.1 1005.0 -
26/11:00pm 28.3 - - - - ESE 15 19 8 10 1005.4 1005.3 -
26/10:30pm 28.4 - - - - E 15 15 8 8 1005.5 1005.4 -
26/10:00pm 28.4 - - - - E 17 20 9 11 1005.3 1005.2 -
26/09:30pm 28.4 - - - - E 22 26 12 14 1005.0 1004.9 -
26/09:00pm 28.4 - - - - ENE 22 24 12 13 1005.0 1004.9 -
26/08:30pm 28.4 - - - - ENE 22 26 12 14 1004.9 1004.8 -
26/08:00pm 28.6 - - - - ENE 20 24 11 13 1004.7 1004.6 -
26/07:30pm 28.6 - - - - NE 19 22 10 12 1004.5 1004.4 -
26/07:00pm 28.6 - - - - NNE 17 20 9 11 1004.0 1003.9 -
26/06:30pm 28.6 - - - - ENE 13 17 7 9 1004.1 1004.0 -
26/06:00pm 28.7 - - - - NE 15 19 8 10 1003.6 1003.5 -
26/05:30pm 28.9 - - - - NE 19 20 10 11 1002.9 1002.8 -
26/05:00pm 28.6 - - - - NE 17 20 9 11 1002.7 1002.6 -
26/04:30pm 28.6 - - - - NE 17 19 9 10 1003.1 1003.0 -
26/04:00pm 28.9 - - - - NE 19 20 10 11 1003.0 1002.9 -
26/03:30pm 28.7 - - - - ENE 17 19 9 10 1002.8 1002.7 -
26/03:00pm 28.9 - - - - ENE 19 22 10 12 1003.4 1003.3 -
26/02:30pm 29.6 - - - - E 19 22 10 12 1003.2 1003.1 -
26/02:00pm 29.4 - - - - E 19 22 10 12 1003.4 1003.3 -
26/01:30pm 29.6 - - - - E 17 19 9 10 1003.4 1003.3 -
26/01:00pm 29.6 - - - - E 13 13 7 7 1003.9 1003.8 -
26/12:30pm 30.4 - - - - E 11 13 6 7 1004.0 1003.9 -
26/12:00pm 30.1 - - - - E 9 9 5 5 1004.4 1004.3 -
26/11:30am 30.8 - - - - E 7 9 4 5 1004.6 1004.5 -
26/11:00am 30.2 - - - - CALM 0 0 0 0 1005.0 1004.9 -
26/10:30am 30.4 - - - - SE 4 6 2 3 1005.2 1005.1 -
26/10:00am 30.1 - - - - SE 4 6 2 3 1005.4 1005.3 -
26/09:30am 30.5 - - - - ESE 4 6 2 3 1005.6 1005.5 -
26/09:00am 29.5 - - - - SE 6 7 3 4 1005.8 1005.7 -
26/08:30am 29.4 - - - - ESE 6 7 3 4 1005.9 1005.8 -
26/08:00am 29.6 - - - - ESE 6 7 3 4 1005.8 1005.7 -
26/07:30am 27.9 - - - - SE 7 9 4 5 1005.8 1005.7 -
26/07:00am 27.1 - - - - SE 7 9 4 5 1006.0 1005.9 -
26/06:30am 26.5 - - - - SSE 11 13 6 7 1005.9 1005.8 -
26/06:00am 26.2 - - - - SSW 17 19 9 10 1005.6 1005.5 -
26/05:30am 26.5 - - - - SW 15 20 8 11 1004.7 1004.6 -
26/05:00am 26.9 - - - - WSW 11 19 6 10 1004.5 1004.4 -
26/04:30am 27.4 - - - - W 11 13 6 7 1004.3 1004.2 -
26/04:00am 28.2 - - - - NNW 17 19 9 10 1004.1 1004.0 -
26/03:30am 28.1 - - - - NNW 17 19 9 10 1004.1 1004.0 -
26/03:00am 27.8 - - - - NNE 17 20 9 11 1004.0 1003.9 -
26/02:30am 27.4 - - - - NE 20 24 11 13 1004.0 1003.9 -
26/02:00am 27.4 - - - - ENE 22 26 12 14 1004.4 1004.3 -
26/01:30am 27.6 - - - - ENE 22 28 12 15 1004.1 1004.0 -
26/01:00am 27.6 - - - - E 20 24 11 13 1004.5 1004.4 -
26/12:30am 27.7 - - - - ESE 17 19 9 10 1004.9 1004.8 -
26/12:00am 27.6 - - - - SE 20 22 11 12 1005.4 1005.3 -
 
Date/Time
EST
Temp
°C
App
Temp
°C
Dew
Point
Rel
Hum
%
Delta-T
°C
Wind Press
QNH
hPa
Press
MSL
hPa
Rain
since 9 am
mm
Dir
 
Spd
km/h
Gust
km/h
Spd
kts
Gust
kts
25/11:30pm 27.4 - - - - S 24 30 13 16 1006.1 1006.0 -
25/11:00pm 27.0 - - - - S 33 39 18 21 1007.0 1006.9 -
25/10:51pm 27.7 - - - - S 30 39 16 21 1007.2 1007.1 -
25/10:30pm 28.2 - - - - SSW 15 19 8 10 1007.0 1006.9 -

Other Formats:

Comma delimited format used in spreadsheet applications
http://www.bom.gov.au/fwo/IDQ60801/IDQ60801.94378.axf

JavaScript Object Notation format (JSON) in row-major order
http://www.bom.gov.au/fwo/IDQ60801/IDQ60801.94378.json